Sittingbourne, United Kingdom
Current Conditions -  °F | °C
As of 2:50 AM on Tuesday 21 Oct 2014 (Local Time) from EGMC Reporting Station
Scattered Clouds Scattered Clouds  
Wind Chill: 14°   Ceiling: Unl
Heat Index: 14°   Visibility: 6mi
Dew Point: 11°   Wind: 13mph
Humidity: 82%   Direction: 220°SW
Pressure: 29.74"   Gusts: NA
Location:  51.34°N, 0.73°E
Report Text: EGMC 210150Z 22011KT 9999 FEW019 SCT040 14/11 Q1007
Loading
Personal Weather Stations






























Interactive Weather Map
Tropical Storm Tracking
New forecast layout! Learn more

10-Day Weather Forecast

Advertisements
Track Severe Weather on mobile